createdAt,value
2018-12-15T00:00:31.140Z,16.33
2018-12-15T00:02:59.435Z,14.97
2018-12-15T00:05:27.605Z,17.33
2018-12-15T00:07:55.942Z,17.13
2018-12-15T00:10:24.328Z,17.27
2018-12-15T00:12:52.516Z,15.80
2018-12-15T00:15:20.696Z,16.43
2018-12-15T00:17:48.967Z,16.43
2018-12-15T00:20:17.144Z,15.60
2018-12-15T00:22:45.333Z,15.17
2018-12-15T00:25:13.512Z,17.27
2018-12-15T00:27:41.704Z,18.10
2018-12-15T00:30:09.892Z,16.80
2018-12-15T00:32:38.076Z,15.70
2018-12-15T00:35:06.435Z,15.07
2018-12-15T00:37:34.624Z,15.93
2018-12-15T00:40:02.946Z,15.70
2018-12-15T00:42:31.521Z,14.33
2018-12-15T00:44:59.725Z,16.07
2018-12-15T00:47:28.291Z,15.40
2018-12-15T00:49:56.564Z,17.03
2018-12-15T00:52:24.744Z,15.03
2018-12-15T00:54:53.074Z,15.77
2018-12-15T00:57:21.247Z,15.20
2018-12-15T00:59:49.424Z,16.30
2018-12-15T01:02:17.617Z,15.60
2018-12-15T01:04:45.792Z,14.33
2018-12-15T01:07:14.148Z,14.03
2018-12-15T01:09:42.329Z,15.87
2018-12-15T01:12:10.825Z,16.90
2018-12-15T01:14:39.309Z,15.43
2018-12-15T01:17:07.507Z,15.27
2018-12-15T01:19:35.681Z,16.63
2018-12-15T01:22:03.844Z,17.10
2018-12-15T01:24:32.015Z,15.33
2018-12-15T01:27:00.443Z,17.87
2018-12-15T01:29:28.608Z,16.23
2018-12-15T01:31:56.772Z,17.03
2018-12-15T01:34:25.032Z,16.23
2018-12-15T01:36:53.189Z,16.17
2018-12-15T01:39:21.365Z,16.33
2018-12-15T01:41:49.520Z,16.40
2018-12-15T01:44:17.771Z,15.37
2018-12-15T01:46:45.937Z,16.27
2018-12-15T01:49:14.197Z,16.07
2018-12-15T01:51:42.397Z,17.23
2018-12-15T01:54:10.756Z,17.67
2018-12-15T01:56:38.924Z,17.77
2018-12-15T01:59:07.084Z,17.37
2018-12-15T02:01:35.248Z,18.10
2018-12-15T02:04:03.416Z,16.93
2018-12-15T02:06:31.806Z,17.63
2018-12-15T02:08:59.997Z,17.57
2018-12-15T02:11:28.412Z,16.77
2018-12-15T02:13:56.623Z,17.27
2018-12-15T02:16:25.164Z,15.63
2018-12-15T02:18:53.748Z,15.80
2018-12-15T02:21:21.908Z,18.20
2018-12-15T02:23:50.080Z,18.50
2018-12-15T02:26:18.240Z,18.90
2018-12-15T02:28:46.543Z,17.77
2018-12-15T02:31:14.729Z,17.47
2018-12-15T02:33:42.997Z,17.50
2018-12-15T02:36:11.244Z,18.37
2018-12-15T02:38:39.429Z,17.57
2018-12-15T02:41:07.587Z,18.73
2018-12-15T02:43:35.768Z,17.57
2018-12-15T02:46:03.933Z,17.60
2018-12-15T02:48:32.110Z,17.97
2018-12-15T02:51:00.351Z,18.77
2018-12-15T02:53:28.520Z,17.73
2018-12-15T02:55:56.686Z,18.33
2018-12-15T02:58:24.859Z,18.30
2018-12-15T03:00:53.031Z,20.63
2018-12-15T03:03:21.290Z,17.40
2018-12-15T03:05:49.465Z,18.40
2018-12-15T03:08:17.665Z,18.80
2018-12-15T03:10:45.850Z,19.40
2018-12-15T03:13:14.585Z,19.13
2018-12-15T03:15:42.759Z,19.97
2018-12-15T03:18:10.948Z,20.03
2018-12-15T03:20:39.134Z,20.73
2018-12-15T03:23:07.317Z,20.07
2018-12-15T03:25:35.505Z,19.60
2018-12-15T03:28:03.704Z,19.37
2018-12-15T03:30:31.898Z,18.83
2018-12-15T03:33:00.155Z,18.00
2018-12-15T03:35:28.363Z,18.30
2018-12-15T03:37:56.542Z,20.50
2018-12-15T03:40:24.724Z,20.27
2018-12-15T03:42:52.897Z,18.73
2018-12-15T03:45:21.117Z,18.47
2018-12-15T03:47:55.929Z,20.20
2018-12-15T03:50:19.496Z,20.07
2018-12-15T03:52:47.703Z,19.03
2018-12-15T03:55:15.993Z,18.53
2018-12-15T03:57:44.172Z,19.40
2018-12-15T04:00:12.357Z,20.30
2018-12-15T04:02:40.529Z,18.77
2018-12-15T04:05:08.717Z,19.30
2018-12-15T04:07:36.888Z,20.43
2018-12-15T04:10:05.517Z,18.73
2018-12-15T04:12:33.705Z,17.97
2018-12-15T04:15:01.893Z,20.43
2018-12-15T04:17:30.070Z,20.73
2018-12-15T04:19:58.358Z,20.43
2018-12-15T04:22:26.562Z,20.37
2018-12-15T04:24:54.874Z,20.80
2018-12-15T04:27:23.069Z,20.87
2018-12-15T04:29:51.252Z,20.00
2018-12-15T04:32:19.435Z,19.03
2018-12-15T04:34:48.064Z,20.93
2018-12-15T04:37:16.243Z,20.03
2018-12-15T04:39:44.724Z,19.17
2018-12-15T04:42:12.896Z,19.77
2018-12-15T04:44:41.082Z,20.87
2018-12-15T04:47:09.332Z,20.70
2018-12-15T04:49:37.516Z,22.17
2018-12-15T04:52:05.788Z,21.70
2018-12-15T04:54:33.976Z,21.07
2018-12-15T04:57:02.244Z,20.73
2018-12-15T04:59:30.449Z,20.47
2018-12-15T05:01:58.658Z,20.00
2018-12-15T05:04:26.848Z,20.50
2018-12-15T05:06:55.028Z,19.83
2018-12-15T05:09:23.236Z,20.83
2018-12-15T05:11:51.424Z,20.47
2018-12-15T05:14:19.604Z,21.10
2018-12-15T05:16:47.769Z,20.60
2018-12-15T05:19:15.940Z,20.53
2018-12-15T05:21:44.101Z,20.37
2018-12-15T05:24:12.276Z,21.17
2018-12-15T05:26:40.618Z,20.97
2018-12-15T05:29:08.822Z,20.90
2018-12-15T05:31:37.037Z,20.13
2018-12-15T05:34:05.312Z,21.03
2018-12-15T05:36:33.487Z,21.37
2018-12-15T05:39:01.779Z,19.30
2018-12-15T05:41:29.995Z,21.00
2018-12-15T05:43:58.210Z,22.30
2018-12-15T05:46:26.410Z,22.03
2018-12-15T05:48:54.604Z,21.63
2018-12-15T05:51:23.063Z,20.70
2018-12-15T05:53:51.235Z,20.70
2018-12-15T05:56:19.432Z,20.83
2018-12-15T05:58:47.609Z,21.60
2018-12-15T06:01:16.017Z,22.33
2018-12-15T06:03:44.188Z,21.60
2018-12-15T06:06:12.368Z,20.00
2018-12-15T06:08:40.553Z,22.07
2018-12-15T06:11:08.824Z,24.03
2018-12-15T06:13:37.096Z,23.00
2018-12-15T06:16:05.368Z,23.30
2018-12-15T06:18:33.576Z,22.43
2018-12-15T06:21:01.773Z,23.13
2018-12-15T06:23:29.961Z,21.63
2018-12-15T06:25:58.495Z,22.97
2018-12-15T06:28:26.669Z,22.13
2018-12-15T06:30:54.856Z,21.17
2018-12-15T06:33:23.290Z,23.17
2018-12-15T06:35:51.468Z,22.60
2018-12-15T06:38:19.648Z,22.53
2018-12-15T06:40:47.832Z,22.07
2018-12-15T06:43:16.380Z,21.70
2018-12-15T06:45:45.263Z,22.23
2018-12-15T06:48:13.716Z,20.97
2018-12-15T06:50:41.900Z,21.00
2018-12-15T06:53:10.072Z,16.37
2018-12-15T06:55:38.290Z,16.53
2018-12-15T06:58:06.562Z,15.77
2018-12-15T07:00:34.787Z,14.77
2018-12-15T07:03:03.054Z,16.07
2018-12-15T07:05:31.232Z,17.20
2018-12-15T07:07:59.412Z,15.50
2018-12-15T07:10:27.592Z,16.07
2018-12-15T07:12:55.760Z,15.90
2018-12-15T07:15:23.952Z,15.23
2018-12-15T07:17:52.200Z,15.23
2018-12-15T07:20:20.456Z,15.57
2018-12-15T07:22:48.732Z,15.43
2018-12-15T07:25:16.984Z,14.33
2018-12-15T07:27:45.147Z,14.07
2018-12-15T07:30:13.641Z,15.13
2018-12-15T07:32:41.814Z,14.40
2018-12-15T07:35:10.027Z,12.97
2018-12-15T07:37:38.211Z,12.73
2018-12-15T07:40:06.561Z,12.80
2018-12-15T07:42:34.734Z,11.47
2018-12-15T07:45:03.087Z,12.53
2018-12-15T07:47:31.255Z,11.53
2018-12-15T07:49:59.420Z,12.67
2018-12-15T07:52:27.593Z,11.90
2018-12-15T07:54:56.292Z,12.80
2018-12-15T07:57:24.464Z,11.20
2018-12-15T07:59:52.624Z,12.60
2018-12-15T08:02:20.876Z,12.27
2018-12-15T08:04:49.127Z,12.07
2018-12-15T08:07:17.300Z,13.07
2018-12-15T08:09:47.188Z,13.07
2018-12-15T08:12:20.893Z,13.23
2018-12-15T08:14:49.257Z,11.97
2018-12-15T08:17:17.444Z,12.20
2018-12-15T08:19:45.622Z,14.03
2018-12-15T08:22:13.856Z,12.87
2018-12-15T08:24:42.036Z,12.87
2018-12-15T08:27:10.204Z,13.47
2018-12-15T08:29:38.474Z,12.80
2018-12-15T08:32:06.757Z,13.30
2018-12-15T08:34:34.931Z,9.93
2018-12-15T08:37:03.120Z,12.70
2018-12-15T08:39:31.904Z,13.17
2018-12-15T08:42:00.116Z,10.80
2018-12-15T08:44:28.292Z,11.87
2018-12-15T08:46:56.514Z,11.87
2018-12-15T08:49:24.705Z,11.70
2018-12-15T08:51:52.891Z,13.70
2018-12-15T08:54:21.059Z,13.90
2018-12-15T08:56:49.257Z,13.17
2018-12-15T08:59:17.532Z,14.53
2018-12-15T09:01:45.719Z,14.97
2018-12-15T09:04:13.900Z,13.17
2018-12-15T09:06:42.168Z,13.83
2018-12-15T09:09:10.344Z,13.57
2018-12-15T09:11:38.621Z,13.87
2018-12-15T09:14:06.793Z,12.60
2018-12-15T09:16:34.983Z,12.73
2018-12-15T09:19:03.888Z,13.47
2018-12-15T09:21:32.066Z,13.30
2018-12-15T09:24:00.320Z,12.07
2018-12-15T09:26:28.538Z,14.43
2018-12-15T09:28:56.729Z,13.60
2018-12-15T09:31:24.933Z,13.07
2018-12-15T09:33:53.087Z,11.60
2018-12-15T09:36:21.268Z,12.47
2018-12-15T09:38:49.434Z,13.73
2018-12-15T09:41:17.777Z,13.67
2018-12-15T09:43:46.140Z,13.27
2018-12-15T09:46:14.316Z,13.53
2018-12-15T09:48:42.499Z,14.20
2018-12-15T09:51:10.690Z,13.33
2018-12-15T09:53:39.052Z,13.77
2018-12-15T09:56:07.235Z,15.10
2018-12-15T09:58:35.609Z,15.57
2018-12-15T10:01:03.956Z,16.03
2018-12-15T10:03:32.114Z,14.17
2018-12-15T10:06:01.084Z,15.23
2018-12-15T10:08:29.372Z,16.63
2018-12-15T10:10:57.694Z,16.07
2018-12-15T10:13:25.872Z,16.07
2018-12-15T10:15:54.141Z,14.93
2018-12-15T10:18:22.352Z,12.73
2018-12-15T10:20:51.161Z,14.07
2018-12-15T10:23:19.364Z,15.17
2018-12-15T10:25:47.860Z,17.07
2018-12-15T10:28:16.063Z,13.90
2018-12-15T10:30:49.849Z,14.40
2018-12-15T10:33:18.203Z,14.73
2018-12-15T10:35:46.608Z,13.70
2018-12-15T10:38:15.028Z,14.10
2018-12-15T10:40:43.473Z,13.47
2018-12-15T10:43:11.657Z,12.03
2018-12-15T10:45:39.833Z,13.13
2018-12-15T10:48:08.051Z,12.63
2018-12-15T10:50:36.223Z,12.83
2018-12-15T10:53:04.508Z,13.87
2018-12-15T10:55:32.684Z,13.40
2018-12-15T10:58:00.870Z,13.70
2018-12-15T11:00:34.601Z,12.57
2018-12-15T11:03:02.788Z,13.23
2018-12-15T11:05:31.212Z,13.47
2018-12-15T11:07:59.425Z,12.57
2018-12-15T11:10:27.688Z,12.97
2018-12-15T11:12:55.876Z,13.63
2018-12-15T11:15:24.092Z,13.20
2018-12-15T11:17:52.272Z,14.80
2018-12-15T11:20:20.549Z,12.93
2018-12-15T11:22:48.819Z,13.10
2018-12-15T11:25:17.013Z,15.10
2018-12-15T11:27:45.254Z,15.13
2018-12-15T11:30:13.539Z,18.07
2018-12-15T11:32:41.724Z,15.83
2018-12-15T11:35:09.912Z,14.87
2018-12-15T11:37:38.111Z,13.83
2018-12-15T11:40:06.863Z,13.67
2018-12-15T11:42:35.040Z,13.90
2018-12-15T11:45:03.360Z,14.87
2018-12-15T11:47:31.558Z,14.40
2018-12-15T11:49:59.888Z,14.67
2018-12-15T11:52:28.304Z,14.87
2018-12-15T11:54:56.700Z,15.53
2018-12-15T11:57:24.893Z,17.63
2018-12-15T11:59:53.209Z,13.57
2018-12-15T12:02:21.396Z,14.40
2018-12-15T12:04:50.196Z,12.90
2018-12-15T12:07:18.383Z,15.03
2018-12-15T12:09:46.578Z,18.30
2018-12-15T12:12:14.870Z,16.43
2018-12-15T12:14:43.150Z,16.10
2018-12-15T12:17:11.446Z,14.53
2018-12-15T12:19:39.607Z,12.63
2018-12-15T12:22:08.043Z,13.20
2018-12-15T12:24:36.206Z,12.73
2018-12-15T12:27:04.488Z,12.00
2018-12-15T12:29:32.756Z,13.37
2018-12-15T12:32:01.016Z,14.10
2018-12-15T12:34:29.322Z,13.83
2018-12-15T12:36:57.504Z,14.50
2018-12-15T12:39:26.028Z,12.30
2018-12-15T12:41:54.381Z,11.90
2018-12-15T12:44:22.607Z,13.40
2018-12-15T12:46:50.768Z,14.10
2018-12-15T12:49:19.045Z,12.83
2018-12-15T12:51:47.844Z,12.57
2018-12-15T12:54:16.965Z,13.73
2018-12-15T12:56:45.190Z,13.37
2018-12-15T12:59:13.561Z,12.67
2018-12-15T13:01:42.060Z,13.30
2018-12-15T13:04:10.506Z,12.90
2018-12-15T13:06:39.120Z,12.53
2018-12-15T13:09:07.617Z,12.67
2018-12-15T13:11:35.878Z,11.70
2018-12-15T13:14:04.316Z,13.43
2018-12-15T13:16:32.580Z,12.07
2018-12-15T13:19:01.230Z,13.07
2018-12-15T13:21:29.496Z,13.57
2018-12-15T13:23:57.827Z,11.57
2018-12-15T13:26:26.278Z,12.33
2018-12-15T13:28:54.585Z,11.83
2018-12-15T13:31:23.235Z,11.63
2018-12-15T13:33:51.795Z,11.23
2018-12-15T13:36:20.322Z,10.87
2018-12-15T13:38:48.699Z,11.70
2018-12-15T13:41:16.932Z,11.07
2018-12-15T13:43:45.266Z,11.47
2018-12-15T13:46:13.685Z,12.03
2018-12-15T13:48:42.063Z,11.80
2018-12-15T13:51:10.570Z,12.60
2018-12-15T13:53:39.642Z,13.30
2018-12-15T13:56:07.908Z,10.77
2018-12-15T13:58:36.425Z,11.80
2018-12-15T14:01:04.837Z,13.20
2018-12-15T14:03:33.795Z,13.30
2018-12-15T14:06:02.216Z,13.73
2018-12-15T14:08:30.399Z,12.33
2018-12-15T14:10:58.597Z,12.30
2018-12-15T14:13:26.801Z,11.47
2018-12-15T14:15:54.972Z,11.33
2018-12-15T14:18:23.154Z,11.50
2018-12-15T14:20:51.565Z,12.70
2018-12-15T14:23:20.046Z,13.43
2018-12-15T14:25:48.240Z,12.70
2018-12-15T14:28:16.467Z,13.80
2018-12-15T14:30:44.646Z,12.50
2018-12-15T14:33:13.099Z,11.13
2018-12-15T14:35:41.311Z,12.10
2018-12-15T14:38:09.500Z,13.53
2018-12-15T14:40:38.013Z,13.53
2018-12-15T14:43:06.467Z,16.63
2018-12-15T14:45:34.696Z,13.43
2018-12-15T14:48:02.910Z,16.67
2018-12-15T14:50:31.132Z,17.53
2018-12-15T14:52:59.513Z,16.10
2018-12-15T14:55:27.796Z,14.10
2018-12-15T14:57:56.109Z,13.13
2018-12-15T15:00:24.371Z,15.07
2018-12-15T15:02:52.952Z,14.33
2018-12-15T15:05:21.242Z,13.70
2018-12-15T15:07:50.136Z,14.73
2018-12-15T15:10:18.548Z,15.30
2018-12-15T15:12:47.137Z,14.43
2018-12-15T15:15:15.414Z,17.23
2018-12-15T15:17:43.667Z,17.73
2018-12-15T15:20:12.188Z,20.33
2018-12-15T15:22:40.364Z,17.03
2018-12-15T15:25:08.630Z,17.87
2018-12-15T15:27:36.877Z,19.57
2018-12-15T15:30:06.697Z,17.60
2018-12-15T15:32:34.958Z,17.30
2018-12-15T15:35:03.406Z,18.70
2018-12-15T15:37:31.845Z,16.43
2018-12-15T15:40:00.118Z,17.80
2018-12-15T15:42:28.323Z,18.70
2018-12-15T15:44:56.540Z,17.67
2018-12-15T15:47:24.959Z,17.23
2018-12-15T15:49:53.239Z,16.93
2018-12-15T15:52:21.522Z,17.27
2018-12-15T15:54:49.937Z,17.27
2018-12-15T15:57:18.147Z,17.63
2018-12-15T15:59:46.643Z,17.67
2018-12-15T16:02:14.864Z,18.97
2018-12-15T16:04:43.032Z,18.67
2018-12-15T16:07:11.292Z,20.27
2018-12-15T16:09:44.880Z,18.17
2018-12-15T16:12:09.773Z,18.87
2018-12-15T16:14:37.975Z,20.73
2018-12-15T16:17:06.720Z,19.03
2018-12-15T16:19:34.916Z,19.63
2018-12-15T16:22:03.229Z,16.67
2018-12-15T16:24:31.455Z,19.00
2018-12-15T16:26:59.865Z,16.23
2018-12-15T16:29:28.282Z,17.43
2018-12-15T16:31:56.557Z,19.20
2018-12-15T16:34:25.115Z,38.57
2018-12-15T16:36:53.609Z,20.93
2018-12-15T16:39:22.241Z,20.83
2018-12-15T16:41:50.424Z,18.77
2018-12-15T16:44:18.951Z,17.57
2018-12-15T16:46:47.193Z,16.77
2018-12-15T16:49:15.475Z,18.33
2018-12-15T16:51:43.961Z,16.70
2018-12-15T16:54:12.705Z,17.57
2018-12-15T16:56:40.988Z,16.67
2018-12-15T16:59:09.177Z,17.57
2018-12-15T17:01:37.449Z,16.87
2018-12-15T17:04:06.129Z,16.50
2018-12-15T17:06:34.738Z,15.40
2018-12-15T17:09:04.016Z,16.80
2018-12-15T17:11:32.184Z,16.03
2018-12-15T17:14:00.696Z,16.60
2018-12-15T17:16:29.220Z,16.23
2018-12-15T17:18:57.897Z,18.57
2018-12-15T17:21:26.389Z,17.40
2018-12-15T17:23:54.800Z,16.20
2018-12-15T17:26:23.251Z,16.37
2018-12-15T17:28:51.481Z,16.37
2018-12-15T17:31:19.728Z,15.03
2018-12-15T17:33:47.929Z,17.70
2018-12-15T17:36:16.265Z,17.50
2018-12-15T17:38:44.442Z,15.87
2018-12-15T17:41:12.623Z,19.97
2018-12-15T17:43:41.139Z,20.53
2018-12-15T17:46:09.383Z,17.97
2018-12-15T17:48:37.545Z,22.23
2018-12-15T17:51:05.944Z,20.63
2018-12-15T17:53:34.520Z,17.97
2018-12-15T17:56:02.687Z,16.90
2018-12-15T17:58:30.861Z,16.50
2018-12-15T18:00:59.124Z,17.00
2018-12-15T18:03:27.383Z,15.97
2018-12-15T18:05:55.557Z,15.70
2018-12-15T18:08:23.719Z,15.27
2018-12-15T18:10:51.908Z,15.70
2018-12-15T18:13:20.092Z,15.27
2018-12-15T18:15:48.268Z,13.37
2018-12-15T18:18:16.477Z,15.03
2018-12-15T18:20:44.682Z,14.53
2018-12-15T18:23:12.852Z,13.57
2018-12-15T18:25:41.052Z,14.07
2018-12-15T18:28:09.308Z,11.97
2018-12-15T18:30:37.804Z,11.83
2018-12-15T18:33:06.507Z,12.60
2018-12-15T18:35:34.679Z,14.17
2018-12-15T18:38:02.848Z,13.53
2018-12-15T18:40:31.405Z,13.17
2018-12-15T18:42:59.588Z,13.33
2018-12-15T18:45:27.760Z,10.90
2018-12-15T18:47:55.942Z,13.10
2018-12-15T18:50:24.708Z,11.77
2018-12-15T18:52:53.179Z,10.63
2018-12-15T18:55:21.436Z,12.43
2018-12-15T18:57:50.565Z,11.73
2018-12-15T19:00:18.805Z,11.53
2018-12-15T19:02:46.999Z,12.43
2018-12-15T19:05:15.264Z,11.27
2018-12-15T19:07:43.519Z,11.90
2018-12-15T19:10:11.831Z,14.17
2018-12-15T19:12:40.507Z,12.27
2018-12-15T19:15:09.031Z,11.30
2018-12-15T19:17:37.572Z,15.10
2018-12-15T19:20:06.412Z,17.53
2018-12-15T19:22:34.554Z,14.07
2018-12-15T19:25:03.226Z,18.37
2018-12-15T19:27:31.372Z,11.67
2018-12-15T19:29:59.784Z,11.83
2018-12-15T19:32:27.935Z,11.57
2018-12-15T19:34:56.268Z,10.93
2018-12-15T19:37:24.712Z,12.73
2018-12-15T19:39:53.049Z,13.00
2018-12-15T19:42:21.217Z,13.40
2018-12-15T19:44:49.528Z,15.50
2018-12-15T19:47:17.784Z,13.53
2018-12-15T19:49:46.192Z,14.27
2018-12-15T19:52:14.366Z,14.30
2018-12-15T19:54:42.524Z,13.23
2018-12-15T19:57:10.963Z,13.63
2018-12-15T19:59:39.111Z,13.27
2018-12-15T20:02:07.484Z,13.43
2018-12-15T20:04:35.636Z,13.67
2018-12-15T20:07:04.213Z,13.40
2018-12-15T20:09:33.403Z,12.30
2018-12-15T20:12:01.547Z,13.93
2018-12-15T20:14:29.741Z,14.13
2018-12-15T20:16:57.935Z,14.50
2018-12-15T20:19:26.314Z,15.13
2018-12-15T20:21:54.492Z,15.47
2018-12-15T20:24:23.665Z,15.90
2018-12-15T20:26:51.984Z,15.60
2018-12-15T20:29:20.209Z,15.73
2018-12-15T20:31:48.500Z,17.13
2018-12-15T20:34:16.676Z,14.97
2018-12-15T20:36:45.128Z,15.30
2018-12-15T20:39:14.224Z,14.73
2018-12-15T20:41:42.501Z,16.07
2018-12-15T20:44:10.679Z,17.00
2018-12-15T20:46:39.483Z,16.63
2018-12-15T20:49:07.925Z,15.43
2018-12-15T20:51:42.571Z,16.07
2018-12-15T20:54:06.364Z,16.20
2018-12-15T20:56:34.711Z,15.27
2018-12-15T20:59:03.462Z,16.87
2018-12-15T21:01:31.831Z,17.03
2018-12-15T21:04:00.004Z,17.80
2018-12-15T21:06:28.177Z,17.77
2018-12-15T21:08:56.360Z,18.10
2018-12-15T21:11:25.239Z,17.90
2018-12-15T21:13:53.477Z,18.27
2018-12-15T21:16:21.677Z,17.60
2018-12-15T21:18:49.879Z,19.27
2018-12-15T21:21:18.214Z,18.80
2018-12-15T21:23:46.486Z,17.97
2018-12-15T21:26:14.760Z,19.13
2018-12-15T21:28:43.088Z,19.77
2018-12-15T21:31:11.367Z,19.00
2018-12-15T21:33:39.532Z,19.10
2018-12-15T21:36:07.704Z,19.80
2018-12-15T21:38:36.813Z,19.63
2018-12-15T21:41:05.136Z,20.17
2018-12-15T21:43:33.440Z,21.00
2018-12-15T21:46:01.629Z,20.67
2018-12-15T21:48:29.796Z,19.97
2018-12-15T21:50:58.256Z,20.07
2018-12-15T21:53:26.436Z,21.80
2018-12-15T21:55:54.638Z,22.47
2018-12-15T21:58:22.857Z,21.37
2018-12-15T22:00:51.043Z,20.93
2018-12-15T22:03:19.320Z,22.70
2018-12-15T22:05:47.608Z,23.33
2018-12-15T22:08:15.784Z,22.20
2018-12-15T22:10:43.963Z,21.73
2018-12-15T22:13:12.132Z,22.70
2018-12-15T22:15:40.288Z,23.10
2018-12-15T22:18:08.556Z,20.40
2018-12-15T22:20:36.992Z,20.10
2018-12-15T22:23:05.520Z,23.43
2018-12-15T22:25:33.671Z,21.73
2018-12-15T22:28:02.356Z,21.70
2018-12-15T22:30:30.679Z,23.37
2018-12-15T22:32:58.889Z,22.20
2018-12-15T22:35:27.132Z,23.47
2018-12-15T22:37:55.342Z,22.87
2018-12-15T22:40:23.711Z,23.07
2018-12-15T22:42:51.883Z,23.90
2018-12-15T22:45:20.083Z,22.97
2018-12-15T22:47:48.266Z,23.83
2018-12-15T22:50:16.508Z,22.57
2018-12-15T22:52:44.764Z,22.80
2018-12-15T22:55:13.042Z,24.10
2018-12-15T22:57:41.644Z,22.77
2018-12-15T23:00:11.319Z,22.30
2018-12-15T23:02:39.504Z,21.63
2018-12-15T23:05:07.848Z,22.20
2018-12-15T23:07:36.007Z,22.37
2018-12-15T23:10:05.480Z,23.73
2018-12-15T23:12:33.728Z,21.77
2018-12-15T23:15:01.897Z,20.97
2018-12-15T23:17:30.137Z,22.23
2018-12-15T23:19:58.331Z,22.23
2018-12-15T23:22:26.496Z,20.63
2018-12-15T23:24:54.748Z,21.60
2018-12-15T23:27:23.037Z,21.93
2018-12-15T23:29:51.225Z,21.03
2018-12-15T23:34:53.980Z,22.50
2018-12-15T23:37:22.235Z,21.37
2018-12-15T23:39:50.402Z,20.53
2018-12-15T23:42:18.740Z,19.90
2018-12-15T23:44:46.930Z,20.33
2018-12-15T23:47:15.084Z,21.33
2018-12-15T23:49:43.513Z,19.97
2018-12-15T23:52:11.675Z,20.97
2018-12-15T23:54:40.452Z,21.13
2018-12-15T23:57:08.617Z,21.00
2018-12-15T23:59:36.772Z,21.27
